メインページ
METAR-TAF:

METAR-TAF

空港 :

Elk Valley

Sparwood, ブリティッシュコロンビア州, カナダ

緯度: 49-45N, 経度: 114-53W, 海抜: 1138m

現時点の気象観測

当レポートは20分前の19:00(UTC)に作成
の風 8kt、最大17ktの突風を伴う、南東から南/南西の間で変化する
気温 24°C
湿度 41%
気圧 1015 hPa
視程: 32.2km
高度6500ftの雲は散在している

METAR: CWSW 181900Z 17008G17KT 130V200 20SM SCT065 24/10 A2996 RMK CU4 SLP135 DENSITY ALT 5600FT

時間: 13:20 (19:20 UTC)


TAF: 見つかりません

4,000以上の空港の気象観測と天気予報(METAR報とTAF報)

利用可能な観測所は地図上に黄色い丸と赤い丸で示す。

丸の上にカーソルを重ねると観測所名を参照できる。

次にクリックすると気象観測と天気予報を参照できる。

マップの切り替え:黒色「×」印の緑ボタンをクリックして拡大、「-」印の緑ボタンをクリックして縮小、緑色の三角印をクリックして隣りの地図に切り替え


METAR-TAF: